TimeEDT,TemperatureF,Dew PointF,Humidity,Sea Level PressureIn,VisibilityMPH,Wind Direction,Wind SpeedMPH,Gust SpeedMPH,PrecipitationIn,Events,Conditions,WindDirDegrees,DateUTC
12:53 AM,30.0,21.9,72,30.03,10.0,West,3.5,-,N/A,,Overcast,260,2014-03-21 04:53:00
1:53 AM,30.0,21.9,72,30.04,10.0,West,4.6,-,N/A,,Overcast,260,2014-03-21 05:53:00
2:53 AM,30.0,21.9,72,30.04,10.0,West,3.5,-,N/A,,Overcast,260,2014-03-21 06:53:00
3:53 AM,28.9,21.0,72,30.03,10.0,WNW,3.5,-,N/A,,Mostly Cloudy,300,2014-03-21 07:53:00
4:53 AM,28.0,19.9,72,30.03,10.0,Calm,Calm,-,N/A,,Mostly Cloudy,0,2014-03-21 08:53:00
5:53 AM,26.1,19.9,78,30.04,10.0,West,3.5,-,N/A,,Clear,270,2014-03-21 09:53:00
6:53 AM,26.1,19.9,78,30.06,10.0,WSW,3.5,-,N/A,,Partly Cloudy,240,2014-03-21 10:53:00
7:53 AM,25.0,19.9,81,30.08,8.0,Calm,Calm,-,N/A,,Clear,0,2014-03-21 11:53:00
8:53 AM,28.9,21.9,75,30.07,10.0,West,3.5,-,N/A,,Clear,280,2014-03-21 12:53:00
9:53 AM,30.9,21.0,67,30.08,10.0,Calm,Calm,-,N/A,,Clear,0,2014-03-21 13:53:00
10:53 AM,32.0,21.0,64,30.10,10.0,Calm,Calm,-,N/A,,Clear,0,2014-03-21 14:53:00
11:53 AM,33.1,21.9,64,30.10,10.0,WSW,6.9,-,N/A,,Clear,250,2014-03-21 15:53:00
12:53 PM,36.0,21.9,57,30.09,10.0,Calm,Calm,-,N/A,,Clear,0,2014-03-21 16:53:00
1:53 PM,37.9,26.1,62,30.07,10.0,Variable,4.6,-,N/A,,Clear,0,2014-03-21 17:53:00
2:53 PM,39.9,21.9,49,30.04,10.0,SW,5.8,-,N/A,,Clear,230,2014-03-21 18:53:00
3:53 PM,42.1,23.0,47,30.02,10.0,Variable,4.6,-,N/A,,Clear,0,2014-03-21 19:53:00
4:53 PM,43.0,24.1,47,30.01,10.0,Variable,5.8,-,N/A,,Clear,0,2014-03-21 20:53:00
5:53 PM,43.0,25.0,49,30.00,10.0,South,8.1,-,N/A,,Clear,190,2014-03-21 21:53:00
6:53 PM,42.1,21.9,45,29.96,10.0,Calm,Calm,-,N/A,,Clear,0,2014-03-21 22:53:00
7:53 PM,39.0,23.0,53,29.97,10.0,South,3.5,-,N/A,,Clear,180,2014-03-21 23:53:00
8:53 PM,37.9,21.9,53,29.94,10.0,Calm,Calm,-,N/A,,Clear,0,2014-03-22 00:53:00
9:53 PM,37.9,23.0,55,29.91,10.0,Variable,5.8,-,N/A,,Clear,0,2014-03-22 01:53:00
10:53 PM,37.0,25.0,62,29.88,10.0,Variable,5.8,-,N/A,,Mostly Cloudy,0,2014-03-22 02:53:00
11:53 PM,37.0,27.0,67,29.85,10.0,Variable,6.9,-,N/A,,Mostly Cloudy,0,2014-03-22 03:53:00